createdAt,value
2023-01-02T00:02:01.098Z,100901.13
2023-01-02T00:07:22.801Z,100890.53
2023-01-02T00:12:44.502Z,100892.69
2023-01-02T00:18:06.394Z,100894.88
2023-01-02T00:23:28.134Z,100891.56
2023-01-02T00:28:49.883Z,100886.00
2023-01-02T00:34:11.585Z,100888.19
2023-01-02T00:39:33.287Z,100885.63
2023-01-02T00:44:54.998Z,100884.81
2023-01-02T00:50:16.799Z,100881.44
2023-01-02T00:55:38.719Z,100878.94
2023-01-02T01:01:00.595Z,100880.03
2023-01-02T01:06:22.692Z,100870.03
2023-01-02T01:11:44.475Z,100861.94
2023-01-02T01:17:06.327Z,100860.28
2023-01-02T01:22:28.082Z,100858.59
2023-01-02T01:27:54.137Z,100871.88
2023-01-02T01:33:15.911Z,100884.06
2023-01-02T01:38:37.912Z,100884.06
2023-01-02T01:44:01.671Z,100882.38
2023-01-02T01:49:28.971Z,100880.69
2023-01-02T01:54:58.349Z,100883.72
2023-01-02T02:00:20.535Z,100892.28
2023-01-02T02:05:44.191Z,100895.06
2023-01-02T02:11:06.303Z,100889.72
2023-01-02T02:16:38.592Z,100901.09
2023-01-02T02:22:39.061Z,100900.22
2023-01-02T02:28:28.335Z,100906.03
2023-01-02T02:34:10.948Z,100919.91
2023-01-02T02:39:41.482Z,100934.88
2023-01-02T02:45:20.435Z,100922.09
2023-01-02T02:50:50.114Z,100918.72
2023-01-02T02:56:13.892Z,100917.88
2023-01-02T03:01:36.725Z,100905.13
2023-01-02T03:07:50.893Z,100898.72
2023-01-02T03:13:40.556Z,100894.84
2023-01-02T03:19:14.044Z,100897.03
2023-01-02T03:24:37.844Z,100893.69
2023-01-02T03:30:06.890Z,100895.34
2023-01-02T03:35:35.499Z,100902.00
2023-01-02T03:41:10.150Z,100902.00
2023-01-02T03:47:08.776Z,100904.78
2023-01-02T03:52:30.575Z,100919.13
2023-01-02T03:58:13.890Z,100923.81
2023-01-02T04:03:45.886Z,100934.09
2023-01-02T04:09:11.564Z,100944.31
2023-01-02T04:14:50.741Z,100947.94
2023-01-02T04:20:19.743Z,100945.41
2023-01-02T04:26:10.331Z,100952.91
2023-01-02T04:32:25.765Z,100955.31
2023-01-02T04:37:47.873Z,100961.69
2023-01-02T04:43:19.991Z,100972.78
2023-01-02T04:48:41.685Z,100975.81
2023-01-02T04:54:03.457Z,100980.50
2023-01-02T04:59:25.186Z,100986.06
2023-01-02T05:04:46.890Z,100987.16
2023-01-02T05:10:09.651Z,100988.25
2023-01-02T05:15:31.854Z,100993.81
2023-01-02T05:20:53.566Z,101000.44
2023-01-02T05:26:17.347Z,101009.56
2023-01-02T05:37:00.818Z,101027.56
2023-01-02T05:42:22.626Z,101043.31
2023-01-02T05:47:44.351Z,101042.50
2023-01-02T05:53:06.077Z,101042.75
2023-01-02T05:58:30.534Z,101068.78
2023-01-02T06:03:54.584Z,101122.28
2023-01-02T06:09:17.216Z,101137.00
2023-01-02T06:14:38.908Z,101146.41
2023-01-02T06:20:00.638Z,101146.63
2023-01-02T06:25:22.376Z,101158.56
2023-01-02T06:30:44.153Z,101181.59
2023-01-02T06:36:16.272Z,101187.13
2023-01-02T06:41:38.128Z,101204.38
2023-01-02T06:46:59.999Z,101222.81
2023-01-02T06:52:22.004Z,101241.25
2023-01-02T06:57:43.740Z,101258.50
2023-01-02T07:03:05.501Z,101267.91
2023-01-02T07:08:27.255Z,101286.69
2023-01-02T07:13:51.718Z,101305.50
2023-01-02T07:19:13.519Z,101306.84
2023-01-02T07:24:35.325Z,101320.94
2023-01-02T07:35:18.800Z,101336.34
2023-01-02T07:40:40.615Z,101343.22
2023-01-02T07:46:04.443Z,101359.88
2023-01-02T07:51:27.610Z,101368.41
2023-01-02T07:56:49.481Z,101386.34
2023-01-02T08:02:11.925Z,101396.63
2023-01-02T08:07:37.000Z,101406.00
2023-01-02T08:13:02.987Z,101405.41
2023-01-02T08:18:24.716Z,101410.94
2023-01-02T08:23:46.465Z,101419.25
2023-01-02T08:29:09.368Z,101425.88
2023-01-02T08:34:31.103Z,101438.66
2023-01-02T08:39:52.876Z,101445.28
2023-01-02T08:45:14.744Z,101440.56
2023-01-02T08:50:36.656Z,101460.22
2023-01-02T08:56:31.127Z,101479.38
2023-01-02T09:01:53.188Z,101504.81
2023-01-02T09:07:15.035Z,101505.66
2023-01-02T09:12:37.148Z,101513.13
2023-01-02T09:17:59.455Z,101523.34
2023-01-02T09:23:21.274Z,101517.81
2023-01-02T09:28:43.046Z,101525.06
2023-01-02T09:34:04.850Z,101529.75
2023-01-02T09:39:32.181Z,101539.97
2023-01-02T09:45:04.515Z,101550.44
2023-01-02T09:50:31.371Z,101562.78
2023-01-02T09:55:58.229Z,101558.59
2023-01-02T10:01:31.560Z,101563.63
2023-01-02T10:07:16.662Z,101563.53
2023-01-02T10:12:47.995Z,101582.22
2023-01-02T10:18:18.575Z,101589.47
2023-01-02T10:23:45.566Z,101605.25
2023-01-02T10:29:12.498Z,101598.03
2023-01-02T10:34:41.992Z,101599.13
2023-01-02T10:40:04.833Z,101604.66
2023-01-02T10:45:26.703Z,101605.50
2023-01-02T10:50:56.361Z,101606.94
2023-01-02T10:56:20.697Z,101599.25
2023-01-02T11:02:00.004Z,101604.94
2023-01-02T11:07:26.799Z,101606.88
2023-01-02T11:12:48.797Z,101607.72
2023-01-02T11:18:21.168Z,101610.88
2023-01-02T11:23:45.175Z,101607.28
2023-01-02T11:29:13.378Z,101603.41
2023-01-02T11:34:40.300Z,101626.47
2023-01-02T11:40:07.203Z,101630.28
2023-01-02T11:45:31.087Z,101632.84
2023-01-02T11:50:53.213Z,101646.09
2023-01-02T11:56:25.007Z,101651.66
2023-01-02T12:02:08.036Z,101638.00
2023-01-02T12:07:42.862Z,101629.06
2023-01-02T12:13:23.007Z,101644.88
2023-01-02T12:18:53.505Z,101660.44
2023-01-02T12:24:27.171Z,101671.28
2023-01-02T12:30:00.784Z,101670.66
2023-01-02T12:35:45.600Z,101665.81
2023-01-02T12:41:33.678Z,101664.13
2023-01-02T12:47:41.054Z,101667.97
2023-01-02T12:53:08.415Z,101675.69
2023-01-02T12:58:51.238Z,101672.06
2023-01-02T13:04:19.580Z,101668.44
2023-01-02T13:09:44.403Z,101687.88
2023-01-02T13:15:18.999Z,101681.25
2023-01-02T13:20:52.970Z,101685.09
2023-01-02T13:26:24.827Z,101694.47
2023-01-02T13:31:53.946Z,101706.66
2023-01-02T13:37:18.807Z,101709.88
2023-01-02T13:42:59.061Z,101708.19
2023-01-02T13:48:35.713Z,101716.50
2023-01-02T13:53:57.549Z,101726.13
2023-01-02T13:59:42.940Z,101729.13
2023-01-02T14:05:42.063Z,101735.78
2023-01-02T14:11:09.482Z,101735.16
2023-01-02T14:16:49.267Z,101747.06
2023-01-02T14:22:14.696Z,101770.94
2023-01-02T14:27:37.149Z,101777.94
2023-01-02T14:33:00.754Z,101783.28
2023-01-02T14:38:28.787Z,101789.22
2023-01-02T14:43:50.613Z,101802.84
2023-01-02T14:49:25.182Z,101810.97
2023-01-02T14:54:56.544Z,101816.28
2023-01-02T15:00:23.989Z,101826.91
2023-01-02T15:06:02.422Z,101827.53
2023-01-02T15:11:45.180Z,101842.47
2023-01-02T15:17:17.747Z,101849.94
2023-01-02T15:22:39.600Z,101870.44
2023-01-02T15:28:01.575Z,101875.13
2023-01-02T15:33:33.768Z,101892.63
2023-01-02T15:39:07.897Z,101906.47
2023-01-02T15:44:54.499Z,101916.50
2023-01-02T15:50:28.433Z,101924.81
2023-01-02T15:55:50.183Z,101937.00
2023-01-02T16:01:20.364Z,101943.63
2023-01-02T16:06:45.511Z,101951.34
2023-01-02T16:12:18.734Z,101959.03
2023-01-02T16:17:40.590Z,101963.69
2023-01-02T16:23:05.996Z,101986.56
2023-01-02T16:28:36.232Z,101989.78
2023-01-02T16:34:15.216Z,102000.03
2023-01-02T16:39:41.462Z,101994.28
2023-01-02T16:45:05.054Z,102008.38
2023-01-02T16:50:28.335Z,102012.84
2023-01-02T16:55:51.902Z,102031.59
2023-01-02T17:01:15.545Z,102035.28
2023-01-02T17:12:12.270Z,102045.59
2023-01-02T17:17:34.364Z,102047.97
2023-01-02T17:22:56.180Z,102057.84
2023-01-02T17:28:17.990Z,102058.59
2023-01-02T17:33:40.272Z,102066.16
2023-01-02T17:39:02.159Z,102076.25
2023-01-02T17:44:23.879Z,102082.44
2023-01-02T17:49:45.700Z,102093.91
2023-01-02T17:55:08.656Z,102095.16
2023-01-02T18:00:30.619Z,102114.84
2023-01-02T18:05:52.351Z,102124.06
2023-01-02T18:11:16.449Z,102122.47
2023-01-02T18:16:40.868Z,102142.31
2023-01-02T18:22:02.962Z,102145.00
2023-01-02T18:27:30.093Z,102153.16
2023-01-02T18:33:07.369Z,102170.25
2023-01-02T18:38:32.203Z,102174.31
2023-01-02T18:44:21.104Z,102183.78
2023-01-02T18:49:43.940Z,102199.22
2023-01-02T18:55:22.943Z,102198.41
2023-01-02T19:00:46.173Z,102204.53
2023-01-02T19:06:18.648Z,102225.19
2023-01-02T19:11:59.140Z,102232.91
2023-01-02T19:17:26.632Z,102243.59
2023-01-02T19:22:49.286Z,102240.44
2023-01-02T19:28:30.222Z,102246.88
2023-01-02T19:34:01.627Z,102251.97
2023-01-02T19:39:23.480Z,102267.66
2023-01-02T19:44:51.374Z,102272.38
2023-01-02T19:50:25.085Z,102281.00
2023-01-02T19:55:46.932Z,102291.81
2023-01-02T20:01:08.727Z,102300.03
2023-01-02T20:06:30.491Z,102299.78
2023-01-02T20:12:11.463Z,102298.59
2023-01-02T20:17:34.587Z,102306.22
2023-01-02T20:22:56.729Z,102315.22
2023-01-02T20:28:18.560Z,102309.59
2023-01-02T20:33:40.318Z,102314.94
2023-01-02T20:39:02.314Z,102310.56
2023-01-02T20:44:24.600Z,102326.56
2023-01-02T20:49:46.361Z,102342.91
2023-01-02T20:55:08.612Z,102348.97
2023-01-02T21:00:30.407Z,102347.75
2023-01-02T21:05:53.855Z,102355.59
2023-01-02T21:11:15.795Z,102355.69
2023-01-02T21:16:37.624Z,102362.28
2023-01-02T21:21:59.419Z,102377.00
2023-01-02T21:27:21.247Z,102378.03
2023-01-02T21:32:43.263Z,102374.56
2023-01-02T21:38:05.246Z,102392.06
2023-01-02T21:43:26.993Z,102384.09
2023-01-02T21:48:49.003Z,102385.91
2023-01-02T21:54:10.751Z,102396.06
2023-01-02T21:59:32.932Z,102402.41
2023-01-02T22:04:54.663Z,102390.91
2023-01-02T22:10:16.993Z,102396.13
2023-01-02T22:15:38.807Z,102402.22
2023-01-02T22:21:00.515Z,102421.72
2023-01-02T22:26:22.325Z,102428.38
2023-01-02T22:31:44.867Z,102428.44
2023-01-02T22:37:06.602Z,102439.34
2023-01-02T22:43:00.376Z,102441.09
2023-01-02T22:48:30.937Z,102445.63
2023-01-02T22:53:52.636Z,102461.25
2023-01-02T22:59:14.485Z,102465.78
2023-01-02T23:04:36.342Z,102478.63
2023-01-02T23:09:58.182Z,102476.50
2023-01-02T23:15:20.180Z,102470.75
2023-01-02T23:20:41.979Z,102483.41
2023-01-02T23:26:05.735Z,102476.56
2023-01-02T23:31:27.697Z,102488.09
2023-01-02T23:36:51.047Z,102500.75
2023-01-02T23:42:12.844Z,102509.50
2023-01-02T23:47:34.651Z,102515.50
2023-01-02T23:52:56.421Z,102511.41
2023-01-02T23:58:18.213Z,102517.41
